createdAt,value
2022-12-24T00:00:40.991Z,50.80
2022-12-24T00:01:41.054Z,51.80
2022-12-24T00:02:41.343Z,51.40
2022-12-24T00:03:41.612Z,50.20
2022-12-24T00:04:41.572Z,51.40
2022-12-24T00:05:41.756Z,51.40
2022-12-24T00:06:41.930Z,50.40
2022-12-24T00:07:42.113Z,51.40
2022-12-24T00:08:42.317Z,52.90
2022-12-24T00:09:42.514Z,52.20
2022-12-24T00:10:42.712Z,51.90
2022-12-24T00:11:42.916Z,51.60
2022-12-24T00:12:43.135Z,51.70
2022-12-24T00:13:43.353Z,51.40
2022-12-24T00:14:43.533Z,50.90
2022-12-24T00:15:43.721Z,52.10
2022-12-24T00:16:43.968Z,50.30
2022-12-24T00:17:44.036Z,51.50
2022-12-24T00:18:46.515Z,50.30
2022-12-24T00:19:44.404Z,52.00
2022-12-24T00:20:44.602Z,50.20
2022-12-24T00:21:44.810Z,49.60
2022-12-24T00:22:45.022Z,49.90
2022-12-24T00:23:45.225Z,47.80
2022-12-24T00:24:45.400Z,48.80
2022-12-24T00:25:45.608Z,47.50
2022-12-24T00:26:45.843Z,47.70
2022-12-24T00:27:46.188Z,47.20
2022-12-24T00:28:46.187Z,48.20
2022-12-24T00:29:46.259Z,47.90
2022-12-24T00:30:46.517Z,48.00
2022-12-24T00:31:46.598Z,47.10
2022-12-24T00:32:46.807Z,46.50
2022-12-24T00:33:47.001Z,48.30
2022-12-24T00:34:47.218Z,46.80
2022-12-24T00:35:47.380Z,47.20
2022-12-24T00:36:47.585Z,47.40
2022-12-24T00:37:47.776Z,46.80
2022-12-24T00:38:48.009Z,47.00
2022-12-24T00:39:48.073Z,48.10
2022-12-24T00:40:48.258Z,47.10
2022-12-24T00:41:48.434Z,48.40
2022-12-24T00:42:48.614Z,47.10
2022-12-24T00:43:48.817Z,47.20
2022-12-24T00:44:49.005Z,46.30
2022-12-24T00:45:49.209Z,46.60
2022-12-24T00:46:49.408Z,46.30
2022-12-24T00:47:49.572Z,46.40
2022-12-24T00:48:49.785Z,45.20
2022-12-24T00:49:49.963Z,46.90
2022-12-24T00:50:50.184Z,45.50
2022-12-24T00:51:50.274Z,46.50
2022-12-24T00:52:50.465Z,47.50
2022-12-24T00:53:50.661Z,46.50
2022-12-24T00:54:50.854Z,48.30
2022-12-24T00:55:51.032Z,47.30
2022-12-24T00:56:51.236Z,46.90
2022-12-24T00:57:51.427Z,47.40
2022-12-24T00:58:51.675Z,47.70
2022-12-24T00:59:51.717Z,46.50
2022-12-24T01:00:51.914Z,46.50
2022-12-24T01:01:52.200Z,46.20
2022-12-24T01:02:52.488Z,46.40
2022-12-24T01:03:52.517Z,45.60
2022-12-24T01:04:52.606Z,45.60
2022-12-24T01:05:52.670Z,46.20
2022-12-24T01:06:52.878Z,47.10
2022-12-24T01:07:53.074Z,46.30
2022-12-24T01:08:53.276Z,46.50
2022-12-24T01:09:53.445Z,47.70
2022-12-24T01:10:53.635Z,47.00
2022-12-24T01:11:53.829Z,46.50
2022-12-24T01:12:54.019Z,47.40
2022-12-24T01:13:54.214Z,46.80
2022-12-24T01:14:54.401Z,46.80
2022-12-24T01:15:54.658Z,46.70
2022-12-24T01:16:54.718Z,46.20
2022-12-24T01:17:54.883Z,45.90
2022-12-24T01:18:55.092Z,46.80
2022-12-24T01:19:55.247Z,45.30
2022-12-24T01:20:55.431Z,46.80
2022-12-24T01:21:55.603Z,45.80
2022-12-24T01:22:55.801Z,48.20
2022-12-24T01:23:55.985Z,46.00
2022-12-24T01:24:56.213Z,46.40
2022-12-24T01:25:56.278Z,46.80
2022-12-24T01:26:56.465Z,47.00
2022-12-24T01:27:56.652Z,47.40
2022-12-24T01:28:56.863Z,46.50
2022-12-24T01:29:57.058Z,45.80
2022-12-24T01:30:57.259Z,45.00
2022-12-24T01:31:57.439Z,46.50
2022-12-24T01:32:57.633Z,45.60
2022-12-24T01:33:57.812Z,46.40
2022-12-24T01:34:58.000Z,45.90
2022-12-24T01:35:58.169Z,45.60
2022-12-24T01:36:58.366Z,45.00
2022-12-24T01:37:58.546Z,45.90
2022-12-24T01:38:58.746Z,46.20
2022-12-24T01:39:58.927Z,46.50
2022-12-24T01:40:59.123Z,44.80
2022-12-24T01:41:59.302Z,45.30
2022-12-24T01:42:59.489Z,45.00
2022-12-24T01:43:59.675Z,44.10
2022-12-24T01:44:59.867Z,46.10
2022-12-24T01:46:00.064Z,45.90
2022-12-24T01:47:00.255Z,46.50
2022-12-24T01:48:00.436Z,45.90
2022-12-24T01:49:00.660Z,46.10
2022-12-24T01:50:00.849Z,46.80
2022-12-24T01:51:01.025Z,46.20
2022-12-24T01:52:01.222Z,45.90
2022-12-24T01:53:01.375Z,45.60
2022-12-24T01:54:01.572Z,45.90
2022-12-24T01:55:01.761Z,45.20
2022-12-24T01:56:01.948Z,45.40
2022-12-24T01:57:02.157Z,46.80
2022-12-24T01:58:02.375Z,46.20
2022-12-24T01:59:02.573Z,46.30
2022-12-24T02:00:02.759Z,45.40
2022-12-24T02:01:02.982Z,45.80
2022-12-24T02:02:03.188Z,45.00
2022-12-24T02:03:03.295Z,45.90
2022-12-24T02:04:03.318Z,46.10
2022-12-24T02:05:03.502Z,45.80
2022-12-24T02:06:03.697Z,45.20
2022-12-24T02:07:03.850Z,45.80
2022-12-24T02:08:04.014Z,44.80
2022-12-24T02:09:04.238Z,45.60
2022-12-24T02:10:04.397Z,45.30
2022-12-24T02:11:04.572Z,45.10
2022-12-24T02:12:04.744Z,47.30
2022-12-24T02:13:04.924Z,46.30
2022-12-24T02:14:05.097Z,45.40
2022-12-24T02:15:05.279Z,45.40
2022-12-24T02:16:05.480Z,46.30
2022-12-24T02:17:05.621Z,45.70
2022-12-24T02:18:05.805Z,45.70
2022-12-24T02:19:06.017Z,46.00
2022-12-24T02:20:06.175Z,46.80
2022-12-24T02:21:06.355Z,47.70
2022-12-24T02:22:06.536Z,47.20
2022-12-24T02:23:06.740Z,46.80
2022-12-24T02:24:06.934Z,47.50
2022-12-24T02:25:07.127Z,46.20
2022-12-24T02:26:07.322Z,48.70
2022-12-24T02:27:07.504Z,48.70
2022-12-24T02:28:07.675Z,47.70
2022-12-24T02:29:07.869Z,47.70
2022-12-24T02:30:08.051Z,47.70
2022-12-24T02:31:08.271Z,49.50
2022-12-24T02:32:08.445Z,48.70
2022-12-24T02:33:08.636Z,48.30
2022-12-24T02:34:08.837Z,48.90
2022-12-24T02:35:09.021Z,48.10
2022-12-24T02:36:09.190Z,48.50
2022-12-24T02:37:09.372Z,49.30
2022-12-24T02:38:09.549Z,49.40
2022-12-24T02:39:09.768Z,49.40
2022-12-24T02:40:16.100Z,49.30
2022-12-24T02:41:11.069Z,49.20
2022-12-24T02:42:10.247Z,50.60
2022-12-24T02:43:10.443Z,49.90
2022-12-24T02:44:10.642Z,48.20
2022-12-24T02:45:10.811Z,49.00
2022-12-24T02:46:11.022Z,51.20
2022-12-24T02:47:11.220Z,50.20
2022-12-24T02:48:11.314Z,49.70
2022-12-24T02:49:11.530Z,50.90
2022-12-24T02:50:11.712Z,48.90
2022-12-24T02:51:11.916Z,50.10
2022-12-24T02:52:12.081Z,49.40
2022-12-24T02:53:12.259Z,50.70
2022-12-24T02:54:12.460Z,50.80
2022-12-24T02:55:12.649Z,51.00
2022-12-24T02:56:12.812Z,52.00
2022-12-24T02:57:13.005Z,53.40
2022-12-24T02:58:13.150Z,53.10
2022-12-24T02:59:13.352Z,52.50
2022-12-24T03:00:13.548Z,52.00
2022-12-24T03:01:13.787Z,52.80
2022-12-24T03:02:13.998Z,54.20
2022-12-24T03:03:14.099Z,53.10
2022-12-24T03:04:14.295Z,55.30
2022-12-24T03:05:14.484Z,55.00
2022-12-24T03:06:14.669Z,55.10
2022-12-24T03:07:14.840Z,54.40
2022-12-24T03:08:15.024Z,54.60
2022-12-24T03:09:15.239Z,54.70
2022-12-24T03:10:15.406Z,53.70
2022-12-24T03:11:15.593Z,54.80
2022-12-24T03:12:15.775Z,56.20
2022-12-24T03:13:15.973Z,54.80
2022-12-24T03:14:16.172Z,55.30
2022-12-24T03:15:16.355Z,56.20
2022-12-24T03:16:16.644Z,56.80
2022-12-24T03:17:16.763Z,55.30
2022-12-24T03:18:16.966Z,56.70
2022-12-24T03:19:17.171Z,55.70
2022-12-24T03:20:17.340Z,57.10
2022-12-24T03:21:17.534Z,57.40
2022-12-24T03:22:17.720Z,56.80
2022-12-24T03:23:17.929Z,58.50
2022-12-24T03:24:18.126Z,56.90
2022-12-24T03:25:18.320Z,56.60
2022-12-24T03:26:18.484Z,56.50
2022-12-24T03:27:18.684Z,57.20
2022-12-24T03:28:18.853Z,56.80
2022-12-24T03:29:19.049Z,55.90
2022-12-24T03:30:19.237Z,56.30
2022-12-24T03:31:19.483Z,53.90
2022-12-24T03:32:19.598Z,55.10
2022-12-24T03:33:19.775Z,56.10
2022-12-24T03:34:19.959Z,55.90
2022-12-24T03:35:20.147Z,57.30
2022-12-24T03:36:20.340Z,55.20
2022-12-24T03:37:20.521Z,57.60
2022-12-24T03:38:20.723Z,55.70
2022-12-24T03:39:20.925Z,57.90
2022-12-24T03:40:21.097Z,55.00
2022-12-24T03:41:21.265Z,57.20
2022-12-24T03:42:21.443Z,58.10
2022-12-24T03:43:21.616Z,56.20
2022-12-24T03:44:21.813Z,57.50
2022-12-24T03:45:21.984Z,57.50
2022-12-24T03:46:22.236Z,59.90
2022-12-24T03:47:22.381Z,59.60
2022-12-24T03:48:32.937Z,61.00
2022-12-24T03:49:22.753Z,58.90
2022-12-24T03:50:22.952Z,58.40
2022-12-24T03:51:23.132Z,66.50
2022-12-24T03:52:23.317Z,65.60
2022-12-24T03:53:23.493Z,62.10
2022-12-24T03:54:23.703Z,61.90
2022-12-24T03:55:23.880Z,59.20
2022-12-24T03:56:24.075Z,57.30
2022-12-24T03:57:24.236Z,57.00
2022-12-24T03:58:24.425Z,61.00
2022-12-24T03:59:24.618Z,58.50
2022-12-24T04:00:24.771Z,56.40
2022-12-24T04:01:25.038Z,57.50
2022-12-24T04:02:25.289Z,59.80
2022-12-24T04:03:25.363Z,57.20
2022-12-24T04:04:25.476Z,57.00
2022-12-24T04:05:25.561Z,57.00
2022-12-24T04:06:25.769Z,55.10
2022-12-24T04:07:25.844Z,56.00
2022-12-24T04:08:26.035Z,57.80
2022-12-24T04:09:26.226Z,55.60
2022-12-24T04:10:26.419Z,56.70
2022-12-24T04:11:26.586Z,57.10
2022-12-24T04:12:26.770Z,59.90
2022-12-24T04:13:26.937Z,56.80
2022-12-24T04:14:27.135Z,55.80
2022-12-24T04:15:27.315Z,55.40
2022-12-24T04:16:27.554Z,58.90
2022-12-24T04:17:27.631Z,55.70
2022-12-24T04:18:27.815Z,54.70
2022-12-24T04:19:28.016Z,59.40
2022-12-24T04:20:28.194Z,57.30
2022-12-24T04:21:28.395Z,59.80
2022-12-24T04:22:28.572Z,55.00
2022-12-24T04:23:28.744Z,55.70
2022-12-24T04:24:28.946Z,55.90
2022-12-24T04:25:29.118Z,56.00
2022-12-24T04:26:29.299Z,58.70
2022-12-24T04:27:30.788Z,59.60
2022-12-24T04:28:29.593Z,59.60
2022-12-24T04:29:29.778Z,56.30
2022-12-24T04:30:29.968Z,59.20
2022-12-24T04:31:30.210Z,55.00
2022-12-24T04:32:30.273Z,54.20
2022-12-24T04:33:30.439Z,54.10
2022-12-24T04:34:30.639Z,53.50
2022-12-24T04:35:30.808Z,56.30
2022-12-24T04:36:30.989Z,55.10
2022-12-24T04:37:31.164Z,54.00
2022-12-24T04:38:31.350Z,56.40
2022-12-24T04:39:31.564Z,52.50
2022-12-24T04:40:31.744Z,54.70
2022-12-24T04:41:31.923Z,55.30
2022-12-24T04:42:32.105Z,54.40
2022-12-24T04:43:32.271Z,56.20
2022-12-24T04:44:32.488Z,54.80
2022-12-24T04:45:32.689Z,56.50
2022-12-24T04:46:32.911Z,56.40
2022-12-24T04:47:33.007Z,58.30
2022-12-24T04:48:33.178Z,57.10
2022-12-24T04:49:33.354Z,57.10
2022-12-24T04:50:33.559Z,57.10
2022-12-24T04:51:33.729Z,57.30
2022-12-24T04:52:33.905Z,57.10
2022-12-24T04:53:34.084Z,55.30
2022-12-24T04:54:34.309Z,54.20
2022-12-24T04:55:34.365Z,57.80
2022-12-24T04:56:34.536Z,55.90
2022-12-24T04:57:34.725Z,52.70
2022-12-24T04:58:34.914Z,58.10
2022-12-24T04:59:35.077Z,54.70
2022-12-24T05:00:35.293Z,59.50
2022-12-24T05:02:33.668Z,57.80
2022-12-24T05:03:33.585Z,57.70
2022-12-24T05:04:33.718Z,58.10
2022-12-24T05:05:33.871Z,53.10
2022-12-24T05:06:33.980Z,56.00
2022-12-24T05:07:34.159Z,56.30
2022-12-24T05:08:34.329Z,58.90
2022-12-24T05:09:34.499Z,64.00
2022-12-24T05:10:34.683Z,56.10
2022-12-24T05:11:34.883Z,55.60
2022-12-24T05:12:35.053Z,56.90
2022-12-24T05:13:44.092Z,54.90
2022-12-24T05:14:36.349Z,56.60
2022-12-24T05:15:35.590Z,57.40
2022-12-24T05:16:35.674Z,55.00
2022-12-24T05:17:35.742Z,56.90
2022-12-24T05:18:35.898Z,57.80
2022-12-24T05:19:36.072Z,54.10
2022-12-24T05:20:36.254Z,55.30
2022-12-24T05:21:36.455Z,52.80
2022-12-24T05:22:36.610Z,54.60
2022-12-24T05:23:36.806Z,54.10
2022-12-24T05:24:36.970Z,54.80
2022-12-24T05:25:40.644Z,53.80
2022-12-24T05:26:37.250Z,54.30
2022-12-24T05:27:37.417Z,55.20
2022-12-24T05:28:37.575Z,55.70
2022-12-24T05:29:37.750Z,57.90
2022-12-24T05:30:39.919Z,54.50
2022-12-24T05:31:38.088Z,54.70
2022-12-24T05:32:38.248Z,55.60
2022-12-24T05:33:38.426Z,55.70
2022-12-24T05:34:38.589Z,54.60
2022-12-24T05:35:38.762Z,54.80
2022-12-24T05:36:38.921Z,55.70
2022-12-24T05:37:39.091Z,54.50
2022-12-24T05:38:39.266Z,56.30
2022-12-24T05:39:39.457Z,54.80
2022-12-24T05:40:39.625Z,56.20
2022-12-24T05:41:39.805Z,56.10
2022-12-24T05:42:40.025Z,56.50
2022-12-24T05:43:40.173Z,57.50
2022-12-24T05:44:40.333Z,55.50
2022-12-24T05:45:40.517Z,55.90
2022-12-24T05:46:40.822Z,56.90
2022-12-24T05:47:43.380Z,57.30
2022-12-24T05:48:41.056Z,56.90
2022-12-24T05:49:41.129Z,57.10
2022-12-24T05:50:41.296Z,57.30
2022-12-24T05:51:41.473Z,57.60
2022-12-24T05:52:41.596Z,58.50
2022-12-24T05:53:41.762Z,58.00
2022-12-24T05:54:41.928Z,57.80
2022-12-24T05:55:42.115Z,57.20
2022-12-24T05:56:42.327Z,56.70
2022-12-24T05:57:42.539Z,56.70
2022-12-24T05:58:42.589Z,56.20
2022-12-24T05:59:42.776Z,55.80
2022-12-24T06:00:43.028Z,58.40
2022-12-24T06:01:43.119Z,57.20
2022-12-24T06:02:43.346Z,58.10
2022-12-24T06:03:43.462Z,58.60
2022-12-24T06:04:43.589Z,58.60
2022-12-24T06:05:43.694Z,57.20
2022-12-24T06:06:43.865Z,59.50
2022-12-24T06:07:44.086Z,58.80
2022-12-24T06:08:44.238Z,56.60
2022-12-24T06:09:44.409Z,58.30
2022-12-24T06:10:44.585Z,57.40
2022-12-24T06:11:44.768Z,59.30
2022-12-24T06:12:44.933Z,59.30
2022-12-24T06:13:45.137Z,59.40
2022-12-24T06:14:45.307Z,60.60
2022-12-24T06:15:45.546Z,59.50
2022-12-24T06:16:45.602Z,59.00
2022-12-24T06:17:45.783Z,57.60
2022-12-24T06:18:45.973Z,59.40
2022-12-24T06:19:46.144Z,59.60
2022-12-24T06:20:46.356Z,61.20
2022-12-24T06:21:46.537Z,60.30
2022-12-24T06:22:46.702Z,61.70
2022-12-24T06:23:46.876Z,59.60
2022-12-24T06:24:47.057Z,61.10
2022-12-24T06:25:47.238Z,60.80
2022-12-24T06:26:47.326Z,61.20
2022-12-24T06:27:47.504Z,61.10
2022-12-24T06:28:47.704Z,62.70
2022-12-24T06:29:47.860Z,62.60
2022-12-24T06:30:48.077Z,64.00
2022-12-24T06:31:48.223Z,64.60
2022-12-24T06:32:48.332Z,64.60
2022-12-24T06:33:48.526Z,65.00
2022-12-24T06:34:48.736Z,63.60
2022-12-24T06:35:48.926Z,66.00
2022-12-24T06:36:49.105Z,62.70
2022-12-24T06:37:49.292Z,63.20
2022-12-24T06:38:49.433Z,62.80
2022-12-24T06:39:49.612Z,62.10
2022-12-24T06:40:49.873Z,61.60
2022-12-24T06:41:49.921Z,62.50
2022-12-24T06:42:50.115Z,63.00
2022-12-24T06:43:50.306Z,60.70
2022-12-24T06:44:50.481Z,61.80
2022-12-24T06:45:50.697Z,60.70
2022-12-24T06:46:50.905Z,58.40
2022-12-24T06:47:51.095Z,61.60
2022-12-24T06:48:51.304Z,60.10
2022-12-24T06:49:51.463Z,60.20
2022-12-24T06:50:51.656Z,58.80
2022-12-24T06:51:51.833Z,59.90
2022-12-24T06:52:52.043Z,60.30
2022-12-24T06:53:52.233Z,59.50
2022-12-24T06:54:52.417Z,59.60
2022-12-24T06:55:52.555Z,59.50
2022-12-24T06:56:52.736Z,59.40
2022-12-24T06:57:52.936Z,59.30
2022-12-24T06:58:53.076Z,60.80
2022-12-24T06:59:53.160Z,60.30
2022-12-24T07:00:53.356Z,62.90
2022-12-24T07:01:53.605Z,59.40
2022-12-24T07:02:53.796Z,60.90
2022-12-24T07:03:54.004Z,60.50
2022-12-24T07:04:54.102Z,60.60
2022-12-24T07:05:54.308Z,60.30
2022-12-24T07:06:54.483Z,61.40
2022-12-24T07:07:54.700Z,60.30
2022-12-24T07:08:54.931Z,60.20
2022-12-24T07:09:54.939Z,62.00
2022-12-24T07:10:55.127Z,61.50
2022-12-24T07:11:55.358Z,60.00
2022-12-24T07:12:55.421Z,59.80
2022-12-24T07:13:55.633Z,59.70
2022-12-24T07:14:55.825Z,60.60
2022-12-24T07:15:56.077Z,58.80
2022-12-24T07:16:59.157Z,59.00
2022-12-24T07:17:56.394Z,58.30
2022-12-24T07:18:56.457Z,57.90
2022-12-24T07:19:56.651Z,58.20
2022-12-24T07:20:56.909Z,58.30
2022-12-24T07:21:57.009Z,58.20
2022-12-24T07:22:57.085Z,57.60
2022-12-24T07:23:57.286Z,59.10
2022-12-24T07:24:57.489Z,59.40
2022-12-24T07:25:57.700Z,58.50
2022-12-24T07:26:57.888Z,58.10
2022-12-24T07:27:58.098Z,59.60
2022-12-24T07:28:58.323Z,58.70
2022-12-24T07:29:58.519Z,58.80
2022-12-24T07:30:58.788Z,59.30
2022-12-24T07:31:58.961Z,59.60
2022-12-24T07:32:58.987Z,58.40
2022-12-24T07:33:59.089Z,58.20
2022-12-24T07:34:59.300Z,56.90
2022-12-24T07:35:59.502Z,59.10
2022-12-24T07:36:59.705Z,56.10
2022-12-24T07:37:59.911Z,58.80
2022-12-24T07:39:00.128Z,58.50
2022-12-24T07:40:00.217Z,57.40
2022-12-24T07:41:00.440Z,56.70
2022-12-24T07:42:00.546Z,56.10
2022-12-24T07:43:00.651Z,56.90
2022-12-24T07:44:00.844Z,56.40
2022-12-24T07:45:00.950Z,58.00
2022-12-24T07:46:01.044Z,58.30
2022-12-24T07:47:01.329Z,58.60
2022-12-24T07:48:01.410Z,56.00
2022-12-24T07:49:01.629Z,55.00
2022-12-24T07:50:01.740Z,54.40
2022-12-24T07:51:01.985Z,55.40
2022-12-24T07:52:02.077Z,59.40
2022-12-24T07:53:02.262Z,57.40
2022-12-24T07:54:02.364Z,58.90
2022-12-24T07:55:02.579Z,58.70
2022-12-24T07:56:07.535Z,58.10
2022-12-24T07:57:03.935Z,57.60
2022-12-24T07:58:03.149Z,56.80
2022-12-24T07:59:03.355Z,57.40
2022-12-24T08:00:03.470Z,56.60
2022-12-24T08:01:03.614Z,56.50
2022-12-24T08:02:04.021Z,57.20
2022-12-24T08:03:04.101Z,58.50
2022-12-24T08:04:04.066Z,58.50
2022-12-24T08:05:04.166Z,55.90
2022-12-24T08:06:04.282Z,57.40
2022-12-24T08:07:04.369Z,56.50
2022-12-24T08:08:04.575Z,57.20
2022-12-24T08:09:04.763Z,56.60
2022-12-24T08:10:04.946Z,58.80
2022-12-24T08:11:05.157Z,56.30
2022-12-24T08:12:05.319Z,56.10
2022-12-24T08:13:05.512Z,57.40
2022-12-24T08:14:05.721Z,57.30
2022-12-24T08:15:05.931Z,56.30
2022-12-24T08:16:06.231Z,58.20
2022-12-24T08:17:06.358Z,57.90
2022-12-24T08:18:06.414Z,59.70
2022-12-24T08:19:06.625Z,64.80
2022-12-24T08:20:06.828Z,62.90
2022-12-24T08:21:07.044Z,63.40
2022-12-24T08:22:07.238Z,57.70
2022-12-24T08:23:07.464Z,61.20
2022-12-24T08:24:07.540Z,62.40
2022-12-24T08:25:07.753Z,61.30
2022-12-24T08:26:07.967Z,62.40
2022-12-24T08:27:08.175Z,69.60
2022-12-24T08:28:08.360Z,70.70
2022-12-24T08:29:07.670Z,73.10
2022-12-24T08:30:08.574Z,74.10
2022-12-24T08:31:08.064Z,74.30
2022-12-24T08:32:08.168Z,70.60
2022-12-24T08:33:08.250Z,65.30
2022-12-24T08:34:08.464Z,68.20
2022-12-24T08:35:08.633Z,66.80
2022-12-24T08:36:08.822Z,69.30
2022-12-24T08:37:09.044Z,72.10
2022-12-24T08:38:09.176Z,88.60
2022-12-24T08:39:09.386Z,70.10
2022-12-24T08:40:09.577Z,82.80
2022-12-24T08:41:09.801Z,70.10
2022-12-24T08:42:10.005Z,84.40
2022-12-24T08:43:10.110Z,77.00
2022-12-24T08:44:10.176Z,75.70
2022-12-24T08:45:10.385Z,81.50
2022-12-24T08:46:10.550Z,76.80
2022-12-24T08:47:10.636Z,76.20
2022-12-24T08:48:10.856Z,78.50
2022-12-24T08:49:11.040Z,66.40
2022-12-24T08:50:11.223Z,70.80
2022-12-24T08:51:11.439Z,65.80
2022-12-24T08:52:11.527Z,71.00
2022-12-24T08:53:11.732Z,65.90
2022-12-24T08:54:11.819Z,69.60
2022-12-24T08:55:12.026Z,63.70
2022-12-24T08:56:12.253Z,64.30
2022-12-24T08:57:12.398Z,64.10
2022-12-24T08:58:12.494Z,66.70
2022-12-24T08:59:12.693Z,64.90
2022-12-24T09:00:12.913Z,65.50
2022-12-24T09:01:13.275Z,62.10
2022-12-24T09:02:13.444Z,62.60
2022-12-24T09:03:14.388Z,65.30
2022-12-24T09:04:13.561Z,64.90
2022-12-24T09:05:13.638Z,62.30
2022-12-24T09:06:13.848Z,65.10
2022-12-24T09:07:14.073Z,66.50
2022-12-24T09:08:14.137Z,66.20
2022-12-24T09:09:14.347Z,62.80
2022-12-24T09:10:14.432Z,61.40
2022-12-24T09:11:14.631Z,60.40
2022-12-24T09:12:14.818Z,59.30
2022-12-24T09:13:15.006Z,60.70
2022-12-24T09:14:15.193Z,60.70
2022-12-24T09:15:15.388Z,64.10
2022-12-24T09:16:15.662Z,61.90
2022-12-24T09:17:15.994Z,62.20
2022-12-24T09:18:15.836Z,59.70
2022-12-24T09:19:16.036Z,60.40
2022-12-24T09:20:16.217Z,60.30
2022-12-24T09:21:16.452Z,60.90
2022-12-24T09:22:16.531Z,61.40
2022-12-24T09:23:16.761Z,62.10
2022-12-24T09:24:16.832Z,60.20
2022-12-24T09:25:17.055Z,60.50
2022-12-24T09:26:17.167Z,62.10
2022-12-24T09:27:17.376Z,62.00
2022-12-24T09:28:17.562Z,64.90
2022-12-24T09:29:17.764Z,63.40
2022-12-24T09:30:17.867Z,60.90
2022-12-24T09:31:18.084Z,61.70
2022-12-24T09:32:18.214Z,62.60
2022-12-24T09:33:18.350Z,62.80
2022-12-24T09:34:18.540Z,62.90
2022-12-24T09:35:18.733Z,64.40
2022-12-24T09:36:19.410Z,59.60
2022-12-24T09:37:19.056Z,62.00
2022-12-24T09:38:19.248Z,64.30
2022-12-24T09:39:19.459Z,61.60
2022-12-24T09:40:19.627Z,71.40
2022-12-24T09:41:19.826Z,82.40
2022-12-24T09:42:20.016Z,91.30
2022-12-24T09:43:20.224Z,89.40
2022-12-24T09:44:20.309Z,80.10
2022-12-24T09:45:20.531Z,81.60
2022-12-24T09:46:20.663Z,88.00
2022-12-24T09:47:20.744Z,73.60
2022-12-24T09:48:21.112Z,67.50
2022-12-24T09:49:21.068Z,66.40
2022-12-24T09:50:21.283Z,68.10
2022-12-24T09:51:21.361Z,70.40
2022-12-24T09:52:21.532Z,66.50
2022-12-24T09:53:21.722Z,83.70
2022-12-24T09:54:21.886Z,73.90
2022-12-24T09:55:22.060Z,80.50
2022-12-24T09:56:22.248Z,74.90
2022-12-24T09:57:22.435Z,76.60
2022-12-24T09:58:22.641Z,75.80
2022-12-24T09:59:22.855Z,80.60
2022-12-24T10:00:23.017Z,64.30
2022-12-24T10:01:23.324Z,71.00
2022-12-24T10:02:23.486Z,89.50
2022-12-24T10:03:23.542Z,78.60
2022-12-24T10:04:23.647Z,74.60
2022-12-24T10:05:23.824Z,72.90
2022-12-24T10:06:28.925Z,64.10
2022-12-24T10:07:25.155Z,67.50
2022-12-24T10:08:24.359Z,74.10
2022-12-24T10:09:24.430Z,64.80
2022-12-24T10:10:24.618Z,61.90
2022-12-24T10:11:24.831Z,60.10
2022-12-24T10:12:25.020Z,59.50
2022-12-24T10:13:25.117Z,84.60
2022-12-24T10:14:25.200Z,60.00
2022-12-24T10:15:25.251Z,57.70
2022-12-24T10:16:25.532Z,91.90
2022-12-24T10:17:25.590Z,63.10
2022-12-24T10:18:25.650Z,60.80
2022-12-24T10:19:25.844Z,54.90
2022-12-24T10:20:25.990Z,55.60
2022-12-24T10:21:26.169Z,53.50
2022-12-24T10:22:26.342Z,55.30
2022-12-24T10:23:26.513Z,56.40
2022-12-24T10:24:26.710Z,61.80
2022-12-24T10:25:26.937Z,54.20
2022-12-24T10:26:27.025Z,57.90
2022-12-24T10:27:27.140Z,57.50
2022-12-24T10:28:27.181Z,55.50
2022-12-24T10:29:27.367Z,52.70
2022-12-24T10:30:27.526Z,58.90
2022-12-24T10:31:27.980Z,55.40
2022-12-24T10:32:27.921Z,54.50
2022-12-24T10:33:28.087Z,57.80
2022-12-24T10:34:28.242Z,67.70
2022-12-24T10:35:28.422Z,52.70
2022-12-24T10:36:28.608Z,57.80
2022-12-24T10:37:28.814Z,52.40
2022-12-24T10:38:28.940Z,49.20
2022-12-24T10:39:29.110Z,48.80
2022-12-24T10:40:29.267Z,49.40
2022-12-24T10:41:29.394Z,48.50
2022-12-24T10:42:29.506Z,50.10
2022-12-24T10:43:29.650Z,47.50
2022-12-24T10:44:29.798Z,47.20
2022-12-24T10:45:29.984Z,44.40
2022-12-24T10:46:30.143Z,45.10
2022-12-24T10:47:30.283Z,44.60
2022-12-24T10:48:30.439Z,45.30
2022-12-24T10:49:30.611Z,44.50
2022-12-24T10:50:30.793Z,45.30
2022-12-24T10:51:30.957Z,45.10
2022-12-24T10:52:31.194Z,41.20
2022-12-24T10:53:31.244Z,43.20
2022-12-24T10:54:31.398Z,40.90
2022-12-24T10:55:31.561Z,42.20
2022-12-24T10:56:31.724Z,40.60
2022-12-24T10:57:31.880Z,42.40
2022-12-24T10:58:32.164Z,39.80
2022-12-24T10:59:32.219Z,42.20
2022-12-24T11:00:36.131Z,40.00
2022-12-24T11:01:32.508Z,40.30
2022-12-24T11:02:40.265Z,39.30
2022-12-24T11:03:32.778Z,42.00
2022-12-24T11:04:34.544Z,41.00
2022-12-24T11:05:33.080Z,38.80
2022-12-24T11:06:33.227Z,40.10
2022-12-24T11:07:33.279Z,39.60
2022-12-24T11:08:33.456Z,39.80
2022-12-24T11:09:33.672Z,43.30
2022-12-24T11:10:33.753Z,38.00
2022-12-24T11:11:33.825Z,40.00
2022-12-24T11:12:34.033Z,40.10
2022-12-24T11:13:38.740Z,41.00
2022-12-24T11:14:35.230Z,38.90
2022-12-24T11:15:34.341Z,39.30
2022-12-24T11:16:34.406Z,38.10
2022-12-24T11:17:34.528Z,37.70
2022-12-24T11:18:34.705Z,42.00
2022-12-24T11:19:34.851Z,39.30
2022-12-24T11:20:35.026Z,40.80
2022-12-24T11:21:35.207Z,39.70
2022-12-24T11:22:35.428Z,39.30
2022-12-24T11:23:35.477Z,38.20
2022-12-24T11:24:35.667Z,37.50
2022-12-24T11:25:35.820Z,37.90
2022-12-24T11:26:36.023Z,37.40
2022-12-24T11:27:36.079Z,37.80
2022-12-24T11:28:36.256Z,38.60
2022-12-24T11:29:36.504Z,41.20
2022-12-24T11:30:36.579Z,38.50
2022-12-24T11:31:36.755Z,45.30
2022-12-24T11:32:36.765Z,43.20
2022-12-24T11:33:36.917Z,40.60
2022-12-24T11:34:37.076Z,38.70
2022-12-24T11:35:37.224Z,38.70
2022-12-24T11:36:37.412Z,38.90
2022-12-24T11:37:37.567Z,39.00
2022-12-24T11:38:37.733Z,37.70
2022-12-24T11:39:37.868Z,39.30
2022-12-24T11:40:38.019Z,37.30
2022-12-24T11:41:38.208Z,33.90
2022-12-24T11:42:38.343Z,34.40
2022-12-24T11:43:38.562Z,34.70
2022-12-24T11:44:38.620Z,35.70
2022-12-24T11:45:38.817Z,36.30
2022-12-24T11:46:38.939Z,33.90
2022-12-24T11:47:39.039Z,35.10
2022-12-24T11:48:39.164Z,35.90
2022-12-24T11:49:39.290Z,35.60
2022-12-24T11:50:39.441Z,33.60
2022-12-24T11:51:39.600Z,33.50
2022-12-24T11:52:39.768Z,35.50
2022-12-24T11:53:39.943Z,37.10
2022-12-24T11:54:40.121Z,35.60
2022-12-24T11:55:40.300Z,35.40
2022-12-24T11:56:40.469Z,34.40
2022-12-24T11:57:40.649Z,32.00
2022-12-24T11:58:40.815Z,31.30
2022-12-24T11:59:40.987Z,33.30
2022-12-24T12:00:41.165Z,35.90
2022-12-24T12:01:41.386Z,43.80
2022-12-24T12:02:41.449Z,38.00
2022-12-24T12:03:41.623Z,37.50
2022-12-24T12:04:41.757Z,33.70
2022-12-24T12:05:41.907Z,37.50
2022-12-24T12:06:42.076Z,34.20
2022-12-24T12:07:42.255Z,31.90
2022-12-24T12:08:42.414Z,33.00
2022-12-24T12:09:42.590Z,35.60
2022-12-24T12:10:42.745Z,33.80
2022-12-24T12:11:42.910Z,34.50
2022-12-24T12:12:43.057Z,33.50
2022-12-24T12:13:43.206Z,36.30
2022-12-24T12:14:43.368Z,34.80
2022-12-24T12:15:43.564Z,33.40
2022-12-24T12:16:43.645Z,33.60
2022-12-24T12:17:43.795Z,35.20
2022-12-24T12:18:43.938Z,43.50
2022-12-24T12:19:44.122Z,43.30
2022-12-24T12:20:44.280Z,39.80
2022-12-24T12:21:44.525Z,43.60
2022-12-24T12:22:44.565Z,44.20
2022-12-24T12:23:44.699Z,37.40
2022-12-24T12:24:44.865Z,34.60
2022-12-24T12:25:45.038Z,55.40
2022-12-24T12:26:45.198Z,34.80
2022-12-24T12:27:45.355Z,33.50
2022-12-24T12:28:45.523Z,36.50
2022-12-24T12:29:45.713Z,41.20
2022-12-24T12:30:45.770Z,36.50
2022-12-24T12:31:45.990Z,33.60
2022-12-24T12:32:46.153Z,36.90
2022-12-24T12:33:46.127Z,36.70
2022-12-24T12:34:46.258Z,31.10
2022-12-24T12:35:46.489Z,32.10
2022-12-24T12:36:46.544Z,34.00
2022-12-24T12:37:46.672Z,33.60
2022-12-24T12:38:46.825Z,32.60
2022-12-24T12:39:46.977Z,31.60
2022-12-24T12:40:47.158Z,31.10
2022-12-24T12:41:47.192Z,31.70
2022-12-24T12:42:47.350Z,29.90
2022-12-24T12:43:47.570Z,30.40
2022-12-24T12:44:47.608Z,29.30
2022-12-24T12:45:47.765Z,29.20
2022-12-24T12:46:47.986Z,29.10
2022-12-24T12:47:48.048Z,29.50
2022-12-24T12:48:48.217Z,28.50
2022-12-24T12:49:48.359Z,24.40
2022-12-24T12:50:48.536Z,26.70
2022-12-24T12:51:48.693Z,24.10
2022-12-24T12:52:48.880Z,24.90
2022-12-24T12:53:48.907Z,27.30
2022-12-24T12:54:49.067Z,28.50
2022-12-24T12:55:49.248Z,25.40